Time;durP1;ratioP1;P1;durP2;ratioP2;P2;SDS_P1;SDS_P2;PMS_P1;PMS_P2;Temp;Humidity;BMP_temperature;BMP_pressure;BME280_temperature;BME280_humidity;BME280_pressure;Samples;Min_cycle;Max_cycle;Signal;HPM_P1;HPM_P2
2021/12/05 00:18:01;;;;;;;6.93;1.37;;;;;;;4.61;90.44;97449.34;4994416;28;102551;-66
2021/12/05 00:23:32;;;;;;;3.70;1.07;;;;;;;4.63;90.40;97451.88;4988124;28;103440;-65
2021/12/05 00:26:03;;;;;;;4.23;1.37;;;;;;;4.77;90.76;97454.41;4990071;28;103244;-65
2021/12/05 00:28:55;;;;;;;4.40;1.20;;;;;;;4.76;90.18;97457.94;4988340;28;102640;-65
2021/12/05 00:56:55;;;;;;;3.03;1.10;;;;;;;5.06;88.30;97454.97;4977819;28;103479;-65
2021/12/05 00:59:41;;;;;;;4.10;1.50;;;;;;;5.04;88.24;97462.09;4990328;28;103318;-66
2021/12/05 01:02:30;;;;;;;2.83;1.17;;;;;;;4.90;88.50;97463.06;4978423;28;103058;-65
2021/12/05 01:11:10;;;;;;;4.63;1.30;;;;;;;4.86;89.44;97458.97;4941578;28;103189;-65
2021/12/05 01:13:44;;;;;;;3.40;1.03;;;;;;;4.89;89.81;97461.38;4977144;28;103586;-65
2021/12/05 01:16:18;;;;;;;5.13;1.47;;;;;;;4.80;90.41;97462.00;4997111;28;103786;-62
2021/12/05 01:18:48;;;;;;;4.60;1.30;;;;;;;4.63;90.26;97451.88;4976548;28;103244;-64
2021/12/05 01:21:21;;;;;;;3.33;1.10;;;;;;;4.77;90.94;97462.25;4980867;28;103187;-64
2021/12/05 01:23:58;;;;;;;3.27;1.07;;;;;;;4.80;90.36;97453.34;4997041;28;102577;-63
2021/12/05 01:26:35;;;;;;;7.00;1.37;;;;;;;4.82;90.49;97465.38;4994037;28;103062;-64
2021/12/05 01:29:16;;;;;;;2.63;1.10;;;;;;;4.72;90.69;97466.94;4971771;28;104239;-63
2021/12/05 01:31:56;;;;;;;4.53;1.30;;;;;;;4.69;90.37;97467.97;4976183;28;103146;-64
2021/12/05 01:34:40;;;;;;;4.67;1.20;;;;;;;4.73;89.54;97473.84;4975585;28;102691;-63
2021/12/05 01:37:21;;;;;;;2.53;1.60;;;;;;;4.73;89.73;97479.06;4980717;28;102735;-63
2021/12/05 01:40:02;;;;;;;2.60;1.10;;;;;;;4.79;89.62;97478.66;4978650;28;103182;-63
2021/12/05 01:54:03;;;;;;;3.27;1.27;;;;;;;4.75;89.97;97486.81;4980271;28;103235;-64
2021/12/05 02:08:20;;;;;;;4.47;1.07;;;;;;;4.53;89.78;97472.56;4979336;28;102701;-65
2021/12/05 02:11:05;;;;;;;4.03;1.17;;;;;;;4.57;89.47;97478.44;4987339;28;102667;-63
2021/12/05 02:16:43;;;;;;;2.03;1.10;;;;;;;4.64;89.28;97458.75;4981319;28;103314;-63
2021/12/05 02:31:02;;;;;;;3.10;1.10;;;;;;;4.44;89.66;97454.03;4977604;28;102725;-63
2021/12/05 02:39:18;;;;;;;2.80;1.13;;;;;;;4.34;90.44;97439.91;4981534;28;103131;-63
2021/12/05 02:41:49;;;;;;;2.50;1.20;;;;;;;4.32;90.13;97447.03;4994350;28;102689;-63
2021/12/05 02:44:23;;;;;;;4.27;1.23;;;;;;;4.27;89.32;97459.56;4977157;28;103970;-63
2021/12/05 02:46:59;;;;;;;2.93;1.10;;;;;;;4.39;89.76;97453.50;5001862;28;103294;-63
2021/12/05 02:49:29;;;;;;;4.00;1.17;;;;;;;4.35;89.90;97454.69;4991713;28;103240;-63
2021/12/05 02:52:01;;;;;;;3.30;1.30;;;;;;;4.30;89.75;97454.97;4996981;28;103012;-63
2021/12/05 02:54:39;;;;;;;3.83;1.00;;;;;;;4.39;89.89;97453.50;4979927;28;103380;-63
2021/12/05 02:57:09;;;;;;;4.00;1.20;;;;;;;4.36;90.01;97449.34;4990805;28;103990;-63
2021/12/05 02:59:45;;;;;;;4.57;1.17;;;;;;;4.38;89.79;97441.41;4993380;28;104060;-64
2021/12/05 03:02:18;;;;;;;2.23;1.10;;;;;;;4.41;90.39;97441.16;4987825;28;102826;-63
2021/12/05 03:04:52;;;;;;;3.77;1.30;;;;;;;4.35;90.29;97442.41;4985654;28;102754;-64
2021/12/05 03:07:26;;;;;;;2.23;1.00;;;;;;;4.40;90.20;97445.59;4986231;28;104043;-63
2021/12/05 03:09:57;;;;;;;5.53;1.70;;;;;;;4.39;89.44;97437.81;4975439;28;103254;-63
2021/12/05 03:12:25;;;;;;;4.00;0.90;;;;;;;4.39;89.49;97443.06;4977211;28;103047;-63
2021/12/05 03:15:01;;;;;;;2.57;1.13;;;;;;;4.46;89.92;97439.09;5000207;28;103777;-64
2021/12/05 03:17:30;;;;;;;3.50;0.80;;;;;;;4.49;89.56;97438.91;4995605;28;103140;-64
2021/12/05 03:19:58;;;;;;;2.37;1.03;;;;;;;4.40;89.60;97437.75;4984324;28;103357;-64
2021/12/05 03:22:27;;;;;;;1.43;1.00;;;;;;;4.41;89.88;97441.16;4983346;28;102749;-63
2021/12/05 03:25:02;;;;;;;3.03;1.10;;;;;;;4.39;89.52;97440.44;4998438;28;102760;-63
2021/12/05 03:27:32;;;;;;;3.73;1.30;;;;;;;4.40;89.16;97431.66;4977969;28;103493;-63
2021/12/05 03:30:01;;;;;;;1.50;0.70;;;;;;;4.45;90.00;97432.19;4993288;28;103296;-63
2021/12/05 03:32:33;;;;;;;3.93;1.40;;;;;;;4.43;89.83;97428.84;4976859;28;102586;-63
2021/12/05 03:35:02;;;;;;;3.53;1.23;;;;;;;4.46;89.64;97428.63;4982808;28;103068;-64
2021/12/05 03:37:32;;;;;;;2.90;1.10;;;;;;;4.49;89.68;97428.44;4978958;28;103304;-63
2021/12/05 03:40:05;;;;;;;3.50;1.10;;;;;;;4.39;89.87;97427.38;4981927;28;103047;-64
2021/12/05 03:42:34;;;;;;;6.03;1.30;;;;;;;4.25;90.01;97424.84;4977327;28;103070;-64
2021/12/05 03:45:08;;;;;;;2.67;1.30;;;;;;;4.31;89.66;97421.81;4974108;28;102787;-63
2021/12/05 03:47:37;;;;;;;4.03;1.43;;;;;;;4.27;89.82;97417.72;4987715;28;103298;-64
2021/12/05 03:50:08;;;;;;;3.03;1.10;;;;;;;4.32;90.08;97415.66;4983349;28;103268;-64
2021/12/05 03:52:38;;;;;;;4.17;1.10;;;;;;;4.36;89.47;97414.50;4993182;28;102525;-64
2021/12/05 03:55:11;;;;;;;2.83;1.30;;;;;;;4.35;90.45;97408.44;4997348;28;105090;-64
2021/12/05 03:57:40;;;;;;;3.10;1.23;;;;;;;4.36;89.91;97407.50;4995010;28;103246;-64
2021/12/05 04:00:11;;;;;;;2.57;1.20;;;;;;;4.40;89.60;97408.13;4997461;28;103367;-64
2021/12/05 04:02:47;;;;;;;3.13;1.53;;;;;;;4.29;90.11;97411.47;4988244;28;103846;-64
2021/12/05 04:05:23;;;;;;;3.00;1.30;;;;;;;4.30;89.56;97420.13;4979267;28;102657;-64
2021/12/05 04:07:52;;;;;;;3.00;1.23;;;;;;;4.31;89.24;97412.22;4978635;28;105115;-64
2021/12/05 04:10:26;;;;;;;2.83;1.00;;;;;;;4.30;89.05;97414.91;4978202;28;103769;-65
2021/12/05 04:12:55;;;;;;;4.70;1.43;;;;;;;4.32;89.00;97416.50;4978860;28;102688;-65
2021/12/05 04:15:24;;;;;;;3.83;1.30;;;;;;;4.28;89.52;97408.94;4977462;28;102926;-64
2021/12/05 04:17:52;;;;;;;5.27;1.30;;;;;;;4.12;89.71;97403.09;4979315;28;102924;-64
2021/12/05 04:20:21;;;;;;;1.80;0.90;;;;;;;4.16;90.09;97415.00;4979917;28;103226;-64
2021/12/05 04:22:50;;;;;;;4.53;1.57;;;;;;;4.07;90.01;97422.50;4978137;28;102747;-64
2021/12/05 04:25:19;;;;;;;3.27;1.20;;;;;;;4.03;89.70;97425.44;4980838;28;102703;-65
2021/12/05 04:27:53;;;;;;;2.63;1.00;;;;;;;4.08;89.30;97429.41;4982493;28;105137;-64
2021/12/05 04:30:25;;;;;;;1.43;1.17;;;;;;;4.19;89.59;97433.09;4983495;28;105140;-64
2021/12/05 04:32:55;;;;;;;3.77;1.23;;;;;;;4.19;89.50;97428.69;4974307;28;102651;-64
2021/12/05 04:35:27;;;;;;;3.77;1.10;;;;;;;4.23;89.80;97431.97;4978626;28;104268;-64
2021/12/05 04:37:56;;;;;;;2.57;1.30;;;;;;;4.18;89.33;97431.44;4997501;28;103230;-65
2021/12/05 04:40:28;;;;;;;4.13;1.37;;;;;;;4.08;89.19;97436.41;4976780;28;103259;-65
2021/12/05 04:42:57;;;;;;;1.40;0.90;;;;;;;4.12;89.18;97430.06;4976774;28;102651;-64
2021/12/05 04:45:30;;;;;;;1.40;1.00;;;;;;;4.17;89.77;97432.34;4977288;28;102820;-65
2021/12/05 04:48:03;;;;;;;2.50;1.27;;;;;;;4.03;90.11;97431.50;4981073;28;104999;-64
2021/12/05 04:50:34;;;;;;;3.40;1.20;;;;;;;4.04;89.99;97435.78;4981690;28;103308;-64
2021/12/05 04:53:05;;;;;;;3.03;1.10;;;;;;;4.14;90.18;97432.56;4985054;28;102587;-64
2021/12/05 04:55:33;;;;;;;1.77;0.90;;;;;;;4.13;90.25;97436.94;4982335;28;103059;-64
2021/12/05 04:58:06;;;;;;;2.80;1.20;;;;;;;4.14;89.91;97440.41;4978244;28;103028;-64
2021/12/05 05:00:39;;;;;;;4.90;2.07;;;;;;;4.13;90.21;97439.56;4974096;28;102653;-64
2021/12/05 05:03:08;;;;;;;4.20;2.20;;;;;;;4.03;90.65;97441.13;4995403;28;102572;-64
2021/12/05 05:05:41;;;;;;;5.47;1.70;;;;;;;3.99;91.04;97434.41;4978439;28;102962;-64
2021/12/05 05:08:09;;;;;;;5.13;1.50;;;;;;;3.99;91.15;97440.47;4994292;28;103730;-64
2021/12/05 05:10:38;;;;;;;3.60;1.50;;;;;;;3.94;91.26;97432.09;4985424;28;103183;-64
2021/12/05 05:13:08;;;;;;;3.40;0.97;;;;;;;3.90;91.40;97435.84;4978857;28;102683;-64
2021/12/05 05:15:36;;;;;;;5.00;1.00;;;;;;;3.88;91.20;97437.72;4990586;28;103017;-64
2021/12/05 05:18:05;;;;;;;2.53;1.10;;;;;;;3.76;92.02;97432.47;4973177;28;103241;-64
2021/12/05 05:20:38;;;;;;;3.93;1.37;;;;;;;3.76;92.17;97433.28;4993361;28;103332;-65
2021/12/05 05:23:19;;;;;;;2.90;0.87;;;;;;;3.78;92.29;97431.44;4989762;28;102630;-64
2021/12/05 05:26:35;;;;;;;4.87;1.40;;;;;;;3.62;92.19;97438.56;4989453;28;102742;-64
2021/12/05 05:29:25;;;;;;;3.20;1.40;;;;;;;3.63;91.73;97436.78;4982888;28;103199;-63
2021/12/05 05:40:40;;;;;;;5.53;1.07;;;;;;;3.67;91.97;97436.53;4973489;28;102988;-64
2021/12/05 05:43:27;;;;;;;2.60;0.93;;;;;;;3.74;91.39;97443.00;4993952;28;103319;-64
2021/12/05 05:46:10;;;;;;;2.20;0.87;;;;;;;3.73;91.51;97425.69;4986971;28;102683;-64
2021/12/05 05:48:48;;;;;;;0.90;0.70;;;;;;;3.66;91.67;97439.22;4980927;28;104397;-64
2021/12/05 05:51:16;;;;;;;1.37;0.87;;;;;;;3.64;91.55;97438.47;4992100;28;105104;-64
2021/12/05 05:53:47;;;;;;;1.00;0.80;;;;;;;3.72;91.88;97444.03;4991148;28;103280;-64
2021/12/05 05:56:19;;;;;;;1.17;0.77;;;;;;;3.67;92.04;97433.91;4992862;28;102822;-64
2021/12/05 05:58:54;;;;;;;4.33;1.20;;;;;;;3.65;91.36;97433.16;4994616;28;102745;-64
2021/12/05 06:01:44;;;;;;;2.40;0.90;;;;;;;3.59;92.02;97445.78;4995664;28;103250;-64
2021/12/05 06:04:13;;;;;;;0.97;0.70;;;;;;;3.64;92.03;97448.94;4989297;28;103274;-64
2021/12/05 06:06:42;;;;;;;3.70;0.90;;;;;;;3.67;92.20;97454.81;4989565;28;102543;-64
2021/12/05 06:09:13;;;;;;;3.37;1.10;;;;;;;3.68;91.61;97456.47;4987145;28;102935;-65
2021/12/05 06:11:41;;;;;;;1.33;0.80;;;;;;;3.72;92.56;97457.94;4993241;27;103995;-65
2021/12/05 06:14:09;;;;;;;1.77;0.80;;;;;;;3.77;92.00;97455.88;4994083;28;103181;-64
2021/12/05 06:16:39;;;;;;;3.37;1.00;;;;;;;3.67;92.34;97446.97;4995847;28;102588;-64
2021/12/05 06:19:08;;;;;;;3.10;0.90;;;;;;;3.71;91.54;97451.03;4997554;28;102804;-64
2021/12/05 06:21:36;;;;;;;1.33;0.80;;;;;;;3.76;91.58;97456.00;4981490;28;104183;-64
2021/12/05 06:24:05;;;;;;;0.80;0.70;;;;;;;3.83;91.96;97459.88;4991379;28;103301;-64
2021/12/05 06:26:35;;;;;;;3.17;1.70;;;;;;;3.73;91.59;97448.34;4998949;28;103056;-64
2021/12/05 06:29:09;;;;;;;3.53;1.30;;;;;;;3.74;91.37;97450.00;4989566;28;102620;-64
2021/12/05 06:37:33;;;;;;;1.10;0.80;;;;;;;3.55;91.95;97450.34;4981040;28;102564;-64
2021/12/05 06:40:20;;;;;;;3.67;1.10;;;;;;;3.56;92.19;97443.38;4994397;28;102790;-64
2021/12/05 06:42:55;;;;;;;1.97;0.80;;;;;;;3.47;91.73;97447.41;4990718;28;104060;-64
2021/12/05 06:48:11;;;;;;;3.20;0.90;;;;;;;3.47;91.92;97447.41;4997985;28;103572;-64
2021/12/05 06:50:39;;;;;;;4.00;1.10;;;;;;;3.39;93.17;97449.66;4994281;28;103851;-64
2021/12/05 06:53:07;;;;;;;2.10;0.87;;;;;;;3.44;92.65;97444.97;4976861;28;103236;-64
2021/12/05 06:55:36;;;;;;;1.63;1.00;;;;;;;3.35;92.53;97450.78;4997833;28;103213;-64
2021/12/05 06:58:07;;;;;;;3.53;0.70;;;;;;;3.35;92.17;97458.59;4992918;28;102607;-64
2021/12/05 07:00:35;;;;;;;5.07;1.70;;;;;;;3.30;93.25;97464.13;4994749;28;103581;-64
2021/12/05 07:03:07;;;;;;;4.17;1.50;;;;;;;3.02;91.38;97468.53;4996479;28;103295;-64
2021/12/05 07:05:45;;;;;;;1.70;1.00;;;;;;;3.13;93.14;97463.50;4992168;28;103195;-64
2021/12/05 07:08:15;;;;;;;4.20;1.10;;;;;;;3.23;92.80;97464.63;5002668;28;102598;-64
2021/12/05 07:10:54;;;;;;;1.77;0.80;;;;;;;3.21;92.44;97476.91;4998763;28;102698;-66
2021/12/05 07:16:15;;;;;;;3.30;1.10;;;;;;;3.20;92.38;97472.63;4997482;28;103233;-66
2021/12/05 07:18:57;;;;;;;2.50;1.00;;;;;;;3.15;92.29;97469.44;4999015;28;102605;-66
2021/12/05 07:21:39;;;;;;;3.17;0.80;;;;;;;3.13;93.21;97474.78;4990582;28;102712;-66
2021/12/05 07:24:17;;;;;;;3.27;1.20;;;;;;;3.04;92.84;97480.53;4977798;28;103456;-66
2021/12/05 07:27:07;;;;;;;3.40;1.47;;;;;;;2.86;93.46;97472.06;4977766;28;103204;-66
2021/12/05 07:40:42;;;;;;;3.13;1.17;;;;;;;3.02;93.57;97476.34;4993868;28;102566;-66
2021/12/05 07:43:14;;;;;;;2.73;1.03;;;;;;;3.06;93.66;97472.66;4996867;28;102636;-67
2021/12/05 07:45:50;;;;;;;1.87;0.93;;;;;;;3.19;93.39;97473.56;4998879;28;103206;-66
2021/12/05 07:48:21;;;;;;;2.43;1.37;;;;;;;3.21;93.34;97466.44;4992006;28;103217;-66
2021/12/05 07:50:59;;;;;;;1.10;0.63;;;;;;;3.25;92.25;97471.41;4995729;28;102988;-66
2021/12/05 07:53:34;;;;;;;2.43;0.90;;;;;;;3.36;92.34;97482.03;4997316;28;102847;-66
2021/12/05 07:56:09;;;;;;;3.13;1.20;;;;;;;3.49;91.66;97482.91;4992619;28;102993;-66
2021/12/05 07:58:56;;;;;;;3.17;1.23;;;;;;;3.55;91.91;97483.47;4977310;28;103192;-66
2021/12/05 08:15:17;;;;;;;3.83;1.37;;;;;;;3.48;93.00;97494.28;4989541;28;104159;-65
2021/12/05 08:17:51;;;;;;;1.77;0.90;;;;;;;3.57;93.36;97499.84;4982801;28;103349;-65
2021/12/05 08:20:25;;;;;;;4.00;1.40;;;;;;;3.70;92.17;97485.94;4974592;28;103208;-64
2021/12/05 08:22:55;;;;;;;2.10;1.13;;;;;;;4.05;90.85;97483.66;4976406;28;103121;-65
2021/12/05 08:25:29;;;;;;;2.93;1.10;;;;;;;4.13;90.79;97483.19;4971437;28;102717;-64
2021/12/05 08:28:17;;;;;;;3.60;1.50;;;;;;;4.52;90.21;97477.94;4984184;28;103320;-65
2021/12/05 08:30:59;;;;;;;3.63;1.63;;;;;;;4.83;87.48;97474.06;4996199;28;105312;-65
2021/12/05 08:33:41;;;;;;;3.13;1.63;;;;;;;5.07;85.77;97470.59;4986287;28;102700;-65
2021/12/05 08:45:01;;;;;;;3.13;1.03;;;;;;;5.52;83.32;97484.00;4985327;28;102733;-65
2021/12/05 09:24:18;;;;;;;4.23;1.30;;;;;;;5.31;82.29;97493.38;4908877;28;103414;-65
2021/12/05 10:06:48;;;;;;;3.67;1.20;;;;;;;6.17;80.64;97479.28;4999679;28;103265;-67
2021/12/05 10:09:42;;;;;;;4.27;1.17;;;;;;;6.48;79.06;97475.22;4992176;28;104573;-65
2021/12/05 10:12:44;;;;;;;4.20;1.33;;;;;;;6.94;78.10;97470.78;4987134;28;103380;-64
2021/12/05 10:15:28;;;;;;;3.03;1.20;;;;;;;6.76;78.36;97464.31;4990569;28;102639;-67
2021/12/05 10:18:27;;;;;;;2.33;1.00;;;;;;;7.28;76.79;97469.00;4992567;28;102835;-67
2021/12/05 10:37:48;;;;;;;1.07;0.80;;;;;;;7.07;75.80;97447.03;4976067;28;102646;-65
2021/12/05 10:40:22;;;;;;;1.23;0.70;;;;;;;6.73;73.89;97448.81;4997613;28;102610;-65
2021/12/05 10:42:52;;;;;;;3.70;0.70;;;;;;;6.84;74.80;97443.56;4980236;28;103275;-65
2021/12/05 10:45:33;;;;;;;1.40;0.80;;;;;;;7.04;73.76;97453.38;4988185;28;103213;-65
2021/12/05 10:48:06;;;;;;;1.03;0.77;;;;;;;6.96;74.25;97446.06;4993596;28;103767;-67
2021/12/05 10:50:40;;;;;;;1.83;0.90;;;;;;;6.89;74.26;97449.28;4982287;28;102769;-65
2021/12/05 10:53:20;;;;;;;1.53;0.90;;;;;;;7.20;74.45;97448.59;4991493;28;104027;-65
2021/12/05 10:55:59;;;;;;;2.00;1.00;;;;;;;7.20;73.86;97440.69;4974406;28;103275;-64
2021/12/05 10:58:38;;;;;;;1.70;0.90;;;;;;;7.27;74.03;97436.63;4987335;28;102558;-67
2021/12/05 11:01:12;;;;;;;1.10;0.80;;;;;;;7.93;70.77;97440.09;4994855;28;103866;-67
2021/12/05 11:03:42;;;;;;;1.47;0.80;;;;;;;8.02;70.13;97436.72;4995482;28;103269;-67
2021/12/05 11:06:23;;;;;;;1.70;1.10;;;;;;;8.28;68.81;97434.59;4994163;28;103239;-67
2021/12/05 11:08:58;;;;;;;2.67;1.10;;;;;;;8.57;67.89;97428.56;4993114;28;102631;-67
2021/12/05 11:11:28;;;;;;;2.03;1.00;;;;;;;8.53;67.87;97429.78;4998495;28;103668;-67
2021/12/05 11:13:58;;;;;;;1.83;1.00;;;;;;;9.12;67.41;97415.97;4988884;28;103333;-66
2021/12/05 11:16:37;;;;;;;1.50;0.80;;;;;;;9.43;64.30;97417.59;4975261;28;103197;-65
2021/12/05 11:19:12;;;;;;;1.77;0.80;;;;;;;9.29;64.83;97410.09;4992581;28;102704;-65
2021/12/05 11:21:46;;;;;;;1.83;0.77;;;;;;;8.80;64.54;97407.34;4973812;28;102693;-65
2021/12/05 11:24:19;;;;;;;1.00;0.70;;;;;;;7.87;68.01;97407.22;4974082;28;104076;-65
2021/12/05 11:27:04;;;;;;;1.03;0.77;;;;;;;8.11;67.83;97404.41;4997798;28;103316;-65
2021/12/05 11:29:46;;;;;;;2.07;0.80;;;;;;;7.89;67.74;97407.94;4988931;28;102601;-65
2021/12/05 11:32:17;;;;;;;2.63;1.30;;;;;;;7.71;69.45;97417.34;4981988;28;104256;-67
2021/12/05 11:34:46;;;;;;;2.33;1.07;;;;;;;7.70;69.50;97414.81;4974586;28;104296;-67
2021/12/05 11:37:15;;;;;;;2.83;1.40;;;;;;;7.57;68.72;97415.81;4986439;28;103815;-65
2021/12/05 11:39:43;;;;;;;1.53;1.10;;;;;;;7.85;68.88;97413.59;4992733;28;102714;-65
2021/12/05 11:42:17;;;;;;;1.63;1.03;;;;;;;8.11;68.45;97414.91;4976279;28;102675;-65
2021/12/05 11:44:49;;;;;;;1.10;0.73;;;;;;;7.56;70.84;97424.66;4976045;28;104225;-65
2021/12/05 11:47:23;;;;;;;1.57;0.60;;;;;;;7.38;69.66;97420.84;4970718;28;103206;-65
2021/12/05 11:49:51;;;;;;;1.00;0.73;;;;;;;7.18;70.76;97419.00;4975849;27;102717;-65
2021/12/05 11:52:25;;;;;;;1.57;0.60;;;;;;;7.18;71.03;97416.34;4987127;28;102950;-68
2021/12/05 11:54:55;;;;;;;1.40;0.80;;;;;;;8.25;69.76;97409.34;4983155;28;103250;-65
2021/12/05 11:57:27;;;;;;;2.93;1.00;;;;;;;8.22;69.06;97406.97;4985680;28;103218;-65
2021/12/05 12:00:00;;;;;;;1.27;1.00;;;;;;;8.23;67.89;97411.25;4985771;28;102598;-65
2021/12/05 12:02:40;;;;;;;3.43;0.80;;;;;;;8.72;66.27;97411.50;4987713;28;102674;-65
2021/12/05 12:05:13;;;;;;;1.37;1.23;;;;;;;8.45;66.97;97413.78;4987777;28;103989;-67
2021/12/05 12:07:46;;;;;;;2.93;1.00;;;;;;;8.88;66.64;97418.91;4990594;28;103203;-67
2021/12/05 12:10:17;;;;;;;1.33;0.87;;;;;;;8.51;65.33;97417.72;4980477;28;102659;-67
2021/12/05 12:12:50;;;;;;;1.63;0.87;;;;;;;8.64;66.33;97416.56;4960484;28;103783;-67
2021/12/05 12:15:21;;;;;;;1.37;0.77;;;;;;;8.73;66.95;97413.13;4988878;28;103406;-63
2021/12/05 12:17:51;;;;;;;0.80;0.77;;;;;;;8.84;65.91;97403.50;4993980;28;103244;-65
2021/12/05 12:20:22;;;;;;;1.20;0.80;;;;;;;9.22;64.27;97408.94;4989047;28;103034;-69
2021/12/05 12:22:54;;;;;;;0.93;0.83;;;;;;;9.17;63.93;97406.72;4973978;28;102804;-69
2021/12/05 12:25:24;;;;;;;1.43;0.90;;;;;;;9.83;63.40;97407.00;4989897;28;103240;-69
2021/12/05 12:27:54;;;;;;;1.90;0.60;;;;;;;9.66;61.82;97410.28;4968041;28;104155;-66
2021/12/05 12:30:28;;;;;;;2.30;0.80;;;;;;;9.95;62.06;97399.78;4971623;28;104421;-70
2021/12/05 12:33:02;;;;;;;1.00;0.67;;;;;;;9.63;62.44;97407.94;4973586;28;102677;-69
2021/12/05 12:35:33;;;;;;;0.67;0.63;;;;;;;9.17;61.81;97405.88;4968586;28;103116;-70
2021/12/05 12:38:06;;;;;;;2.33;0.90;;;;;;;8.66;66.01;97400.63;4985635;28;103175;-69
2021/12/05 12:40:41;;;;;;;1.03;0.80;;;;;;;8.37;64.90;97410.13;5004054;28;102767;-69
2021/12/05 12:43:41;;;;;;;1.73;0.70;;;;;;;8.46;66.70;97409.38;5009994;27;102861;-68
2021/12/05 12:46:20;;;;;;;1.00;0.60;;;;;;;8.31;67.29;97410.69;5010363;28;103442;-64
2021/12/05 12:48:55;;;;;;;0.87;0.70;;;;;;;8.12;68.07;97400.78;5000535;28;103097;-64
2021/12/05 12:51:35;;;;;;;0.97;0.60;;;;;;;8.12;66.22;97406.06;4995155;28;103514;-64
2021/12/05 12:54:08;;;;;;;1.03;0.83;;;;;;;8.18;67.46;97400.28;4994529;28;103984;-69
2021/12/05 12:56:39;;;;;;;0.83;0.60;;;;;;;8.59;66.83;97400.31;5010816;28;103332;-69
2021/12/05 12:59:14;;;;;;;0.83;0.70;;;;;;;8.33;67.21;97399.06;5010461;28;103238;-69
2021/12/05 13:02:26;;;;;;;1.27;0.70;;;;;;;8.27;68.61;97403.94;5004807;28;102605;-69
2021/12/05 13:05:15;;;;;;;1.53;0.80;;;;;;;8.26;69.58;97405.75;5011560;28;102625;-69
2021/12/05 13:10:40;;;;;;;0.87;0.53;;;;;;;8.58;68.01;97393.41;4991978;28;103207;-69
2021/12/05 13:13:18;;;;;;;1.03;0.70;;;;;;;8.69;66.97;97395.94;4992545;28;102677;-69
2021/12/05 13:15:53;;;;;;;1.47;0.93;;;;;;;8.51;67.86;97408.03;4999454;28;102628;-66
2021/12/05 13:18:26;;;;;;;1.50;0.90;;;;;;;8.70;67.15;97392.34;5012591;28;104404;-66
2021/12/05 13:20:58;;;;;;;1.43;0.87;;;;;;;8.59;67.44;97408.22;5005253;28;103290;-69
2021/12/05 13:23:34;;;;;;;2.20;0.80;;;;;;;8.41;65.95;97412.41;4997840;28;102804;-69
2021/12/05 13:26:20;;;;;;;1.53;0.80;;;;;;;8.32;66.65;97413.16;5010096;28;102647;-69
2021/12/05 13:28:51;;;;;;;3.10;0.70;;;;;;;8.02;67.23;97415.66;5006239;28;103286;-69
2021/12/05 13:31:49;;;;;;;0.87;0.40;;;;;;;7.82;67.62;97422.56;5000219;28;103131;-69
2021/12/05 13:34:27;;;;;;;0.77;0.50;;;;;;;7.59;68.12;97423.56;5011273;28;102573;-69
2021/12/05 13:36:59;;;;;;;0.60;0.60;;;;;;;7.28;71.08;97432.22;4990161;28;102606;-70
2021/12/05 13:39:35;;;;;;;0.70;0.60;;;;;;;6.41;76.35;97433.69;5008302;28;104186;-69
2021/12/05 13:42:06;;;;;;;1.20;0.63;;;;;;;6.41;77.68;97446.81;5012997;28;103230;-69
2021/12/05 13:45:11;;;;;;;1.37;0.80;;;;;;;6.12;78.91;97453.38;4991714;28;102741;-69
2021/12/05 13:47:48;;;;;;;1.67;0.70;;;;;;;6.43;80.73;97450.16;5006195;28;103757;-69
2021/12/05 13:50:35;;;;;;;1.07;0.80;;;;;;;6.17;81.62;97453.91;5002654;28;103243;-68
2021/12/05 13:53:32;;;;;;;1.10;0.60;;;;;;;5.93;82.98;97463.56;5012318;28;103754;-68
2021/12/05 13:56:10;;;;;;;1.27;0.83;;;;;;;5.60;84.89;97458.94;4977926;28;102781;-68
2021/12/05 13:58:45;;;;;;;1.30;0.90;;;;;;;5.38;85.24;97460.59;5013161;28;102696;-67
2021/12/05 14:01:20;;;;;;;2.73;1.63;;;;;;;5.30;86.55;97458.50;5000691;28;103316;-67
2021/12/05 14:04:28;;;;;;;1.40;1.30;;;;;;;5.25;87.55;97455.34;5013580;28;103205;-67
2021/12/05 14:07:01;;;;;;;2.17;1.50;;;;;;;5.55;86.95;97454.97;5010374;28;102803;-67
2021/12/05 14:09:33;;;;;;;1.57;1.40;;;;;;;5.60;86.86;97468.59;5011283;28;104040;-67
2021/12/05 14:12:06;;;;;;;3.07;2.20;;;;;;;5.47;87.31;97467.78;5016527;28;103177;-67
2021/12/05 14:14:37;;;;;;;2.50;1.63;;;;;;;5.29;86.32;97472.53;5013523;28;103192;-67
2021/12/05 14:17:09;;;;;;;2.77;1.23;;;;;;;5.36;86.95;97473.75;5007836;28;102626;-67
2021/12/05 14:19:41;;;;;;;1.20;1.10;;;;;;;5.25;87.13;97471.91;5004774;28;104032;-67
2021/12/05 14:22:11;;;;;;;2.17;1.40;;;;;;;5.20;86.66;97478.41;5007527;28;103304;-67
2021/12/05 14:24:42;;;;;;;3.00;1.57;;;;;;;5.39;86.63;97485.84;4982021;28;103249;-67
2021/12/05 14:27:14;;;;;;;1.90;1.60;;;;;;;5.62;86.18;97487.66;5015043;28;102681;-68
2021/12/05 14:29:45;;;;;;;1.70;1.17;;;;;;;6.01;85.61;97484.81;5007440;28;102569;-67
2021/12/05 14:32:20;;;;;;;2.60;1.50;;;;;;;6.18;84.60;97478.31;5003291;27;103334;-67
2021/12/05 14:34:51;;;;;;;1.60;1.50;;;;;;;6.45;83.87;97481.53;5007488;28;103238;-67
2021/12/05 14:37:23;;;;;;;1.53;1.30;;;;;;;6.50;82.49;97478.56;4995348;28;104313;-67
2021/12/05 14:39:55;;;;;;;2.13;1.40;;;;;;;6.30;82.03;97478.25;5018667;28;103690;-68
2021/12/05 14:42:26;;;;;;;1.57;1.33;;;;;;;5.81;85.35;97483.59;5011993;28;103280;-68
2021/12/05 14:44:57;;;;;;;2.60;1.40;;;;;;;5.74;86.46;97484.16;5016790;28;103267;-68
2021/12/05 14:47:28;;;;;;;1.90;1.50;;;;;;;5.95;86.00;97497.53;5003442;28;102523;-68
2021/12/05 14:50:00;;;;;;;1.93;1.30;;;;;;;6.28;85.45;97501.16;5009808;28;102750;-68
2021/12/05 14:52:32;;;;;;;2.03;1.20;;;;;;;6.45;84.50;97504.31;4999368;28;103209;-68
2021/12/05 14:55:01;;;;;;;2.00;1.20;;;;;;;6.26;83.47;97508.28;5010854;28;103224;-65
2021/12/05 14:57:31;;;;;;;2.27;1.60;;;;;;;5.25;87.86;97510.34;4986733;28;102700;-61
2021/12/05 15:00:07;;;;;;;1.30;1.03;;;;;;;5.19;89.02;97514.22;5013693;28;102660;-65
2021/12/05 15:02:36;;;;;;;2.70;1.17;;;;;;;5.43;88.70;97516.94;5010019;28;104385;-66
2021/12/05 15:05:13;;;;;;;2.17;1.10;;;;;;;5.63;88.67;97510.28;5005153;28;103197;-66
2021/12/05 15:07:42;;;;;;;1.63;1.10;;;;;;;5.52;87.81;97525.94;4980184;28;102679;-65
2021/12/05 15:10:10;;;;;;;2.00;1.00;;;;;;;4.90;90.32;97518.03;5005523;28;102638;-65
2021/12/05 15:12:39;;;;;;;2.27;1.07;;;;;;;4.88;92.15;97525.16;5004451;28;103284;-65
2021/12/05 15:15:10;;;;;;;2.30;0.93;;;;;;;4.99;92.36;97525.25;5009300;28;103190;-66
2021/12/05 15:17:40;;;;;;;2.23;1.10;;;;;;;5.32;91.33;97534.34;5009203;28;102613;-66
2021/12/05 15:20:14;;;;;;;0.70;0.70;;;;;;;5.53;89.62;97538.09;4990736;28;103885;-66
2021/12/05 15:22:44;;;;;;;1.47;1.10;;;;;;;5.66;89.47;97544.13;5010617;28;104121;-65
2021/12/05 15:25:16;;;;;;;1.53;1.13;;;;;;;5.59;89.43;97543.72;5007320;28;103274;-65
2021/12/05 15:27:46;;;;;;;1.60;1.00;;;;;;;5.67;88.95;97551.06;5007259;28;102567;-65
2021/12/05 15:33:59;;;;;;;1.47;1.30;;;;;;;5.58;88.16;97554.31;5009644;28;103263;-65
2021/12/05 15:36:34;;;;;;;3.30;1.80;;;;;;;5.17;91.35;97552.78;5009088;28;103225;-65
2021/12/05 15:39:12;;;;;;;2.33;1.70;;;;;;;5.02;93.18;97558.25;4989380;28;102860;-65
2021/12/05 15:41:40;;;;;;;2.00;1.80;;;;;;;5.00;93.87;97553.09;5008522;28;102650;-65
2021/12/05 15:44:08;;;;;;;2.80;1.70;;;;;;;5.05;92.78;97564.06;5007311;27;103222;-65
2021/12/05 15:46:40;;;;;;;3.37;1.63;;;;;;;4.83;92.49;97563.84;5010497;28;102978;-65
2021/12/05 15:49:08;;;;;;;1.83;1.30;;;;;;;4.22;96.67;97567.06;4988960;28;102725;-65
2021/12/05 15:51:38;;;;;;;2.20;1.60;;;;;;;4.12;97.40;97570.38;4991270;28;102678;-66
2021/12/05 15:54:07;;;;;;;2.90;1.50;;;;;;;4.08;97.20;97570.56;5006750;28;104164;-65
2021/12/05 15:56:35;;;;;;;3.13;1.57;;;;;;;4.04;97.14;97576.91;5002056;28;103195;-65
2021/12/05 15:59:17;;;;;;;2.53;1.60;;;;;;;3.99;95.98;97573.75;5011974;28;102941;-66
2021/12/05 16:01:46;;;;;;;3.10;1.93;;;;;;;3.82;96.43;97573.97;5005905;28;103849;-65
2021/12/05 16:04:22;;;;;;;3.10;2.30;;;;;;;3.82;96.56;97584.44;4985573;28;103337;-65
2021/12/05 16:06:52;;;;;;;2.67;2.00;;;;;;;4.13;95.12;97582.50;5010771;28;103180;-65
2021/12/05 16:09:22;;;;;;;2.93;2.60;;;;;;;3.90;95.02;97587.38;5012633;28;102685;-65
2021/12/05 16:11:54;;;;;;;3.40;3.10;;;;;;;3.71;95.65;97586.88;5002364;28;102684;-65
2021/12/05 16:14:28;;;;;;;4.57;3.30;;;;;;;3.81;96.21;97590.59;5011284;28;103169;-65
2021/12/05 16:16:56;;;;;;;4.03;3.30;;;;;;;3.67;96.73;97595.84;4986864;28;103291;-65